createdAt,value
2022-11-19T00:01:11.144Z,2.22
2022-11-19T00:03:39.031Z,1.90
2022-11-19T00:06:08.681Z,1.80
2022-11-19T00:08:35.501Z,1.80
2022-11-19T00:11:10.871Z,1.73
2022-11-19T00:13:39.086Z,1.75
2022-11-19T00:16:08.514Z,1.80
2022-11-19T00:18:35.314Z,1.60
2022-11-19T00:21:04.085Z,1.95
2022-11-19T00:23:30.795Z,2.00
2022-11-19T00:25:57.406Z,2.10
2022-11-19T00:28:23.899Z,1.98
2022-11-19T00:30:50.395Z,2.03
2022-11-19T00:33:16.902Z,1.90
2022-11-19T00:35:43.382Z,1.95
2022-11-19T00:38:09.906Z,2.00
2022-11-19T00:40:36.412Z,2.10
2022-11-19T00:43:21.699Z,2.13
2022-11-19T00:45:49.053Z,2.17
2022-11-19T00:48:15.596Z,2.03
2022-11-19T00:50:42.609Z,2.22
2022-11-19T00:53:09.179Z,2.13
2022-11-19T00:55:37.478Z,2.22
2022-11-19T00:58:04.126Z,2.30
2022-11-19T01:00:30.619Z,2.00
2022-11-19T01:02:57.861Z,2.10
2022-11-19T01:05:24.404Z,1.90
2022-11-19T01:07:53.032Z,2.03
2022-11-19T01:10:19.644Z,2.40
2022-11-19T01:13:04.828Z,2.42
2022-11-19T01:15:31.342Z,2.20
2022-11-19T01:17:57.824Z,2.88
2022-11-19T01:20:24.463Z,2.13
2022-11-19T01:22:50.972Z,2.97
2022-11-19T01:25:17.699Z,2.20
2022-11-19T01:27:44.253Z,2.20
2022-11-19T01:30:11.492Z,2.10
2022-11-19T01:32:38.326Z,2.20
2022-11-19T01:35:05.276Z,2.33
2022-11-19T01:37:31.791Z,2.60
2022-11-19T01:39:58.347Z,3.00
2022-11-19T01:42:46.911Z,4.00
2022-11-19T01:45:31.488Z,4.30
2022-11-19T01:48:07.747Z,3.45
2022-11-19T01:50:37.896Z,3.55
2022-11-19T01:53:04.752Z,3.10
2022-11-19T01:55:31.575Z,3.10
2022-11-19T01:58:01.418Z,3.40
2022-11-19T02:00:28.317Z,3.63
2022-11-19T02:02:59.015Z,3.65
2022-11-19T02:05:26.875Z,3.83
2022-11-19T02:07:56.592Z,3.22
2022-11-19T02:10:31.094Z,3.65
2022-11-19T02:13:21.912Z,3.33
2022-11-19T02:16:08.816Z,3.80
2022-11-19T02:18:49.983Z,3.85
2022-11-19T02:21:42.245Z,4.05
2022-11-19T02:24:33.737Z,4.10
2022-11-19T02:27:34.264Z,4.10
2022-11-19T02:30:15.976Z,4.00
2022-11-19T02:32:53.911Z,4.03
2022-11-19T02:35:46.576Z,4.03
2022-11-19T02:38:21.569Z,4.03
2022-11-19T02:41:38.810Z,4.35
2022-11-19T02:44:33.009Z,4.00
2022-11-19T02:49:31.545Z,4.40
2022-11-19T02:51:59.576Z,4.40
2022-11-19T02:54:27.855Z,4.00
2022-11-19T02:56:58.766Z,4.30
2022-11-19T02:59:56.706Z,4.20
2022-11-19T03:02:46.243Z,4.10
2022-11-19T03:05:16.291Z,4.15
2022-11-19T03:07:43.061Z,4.75
2022-11-19T03:10:10.942Z,4.70
2022-11-19T03:12:50.075Z,5.00
2022-11-19T03:16:02.691Z,4.80
2022-11-19T03:18:50.096Z,4.75
2022-11-19T03:21:21.380Z,4.70
2022-11-19T03:23:53.153Z,4.38
2022-11-19T03:26:34.264Z,4.47
2022-11-19T03:29:05.982Z,4.95
2022-11-19T03:31:34.545Z,5.30
2022-11-19T03:34:07.668Z,4.43
2022-11-19T03:36:37.152Z,5.15
2022-11-19T03:39:08.959Z,5.43
2022-11-19T03:41:37.756Z,4.80
2022-11-19T03:44:16.265Z,5.30
2022-11-19T03:46:45.847Z,4.93
2022-11-19T03:49:14.557Z,5.38
2022-11-19T03:51:46.751Z,5.07
2022-11-19T03:54:14.380Z,5.10
2022-11-19T03:56:42.012Z,5.10
2022-11-19T03:59:11.308Z,4.90
2022-11-19T04:01:39.142Z,5.30
2022-11-19T04:04:24.454Z,4.32
2022-11-19T04:06:51.067Z,4.35
2022-11-19T04:09:17.907Z,5.10
2022-11-19T04:14:11.246Z,5.50
2022-11-19T04:16:38.034Z,5.13
2022-11-19T04:19:04.645Z,5.40
2022-11-19T04:21:31.323Z,5.32
2022-11-19T04:23:57.871Z,5.28
2022-11-19T04:26:24.392Z,5.80
2022-11-19T04:28:50.891Z,5.35
2022-11-19T04:31:18.204Z,5.22
2022-11-19T04:33:44.893Z,5.72
2022-11-19T04:36:11.338Z,5.60
2022-11-19T04:38:37.821Z,5.97
2022-11-19T04:41:04.379Z,5.80
2022-11-19T04:43:30.923Z,5.68
2022-11-19T04:45:57.475Z,5.63
2022-11-19T04:48:23.992Z,6.28
2022-11-19T04:50:50.501Z,6.25
2022-11-19T04:53:17.019Z,6.10
2022-11-19T04:55:43.572Z,5.95
2022-11-19T04:58:10.467Z,6.18
2022-11-19T05:00:36.983Z,6.45
2022-11-19T05:03:03.713Z,6.00
2022-11-19T05:05:30.288Z,5.93
2022-11-19T05:07:56.889Z,6.10
2022-11-19T05:10:23.416Z,6.43
2022-11-19T05:12:49.934Z,6.32
2022-11-19T05:15:16.577Z,6.38
2022-11-19T05:17:44.759Z,6.40
2022-11-19T05:20:11.665Z,6.05
2022-11-19T05:22:38.182Z,6.38
2022-11-19T05:25:05.090Z,7.15
2022-11-19T05:27:31.586Z,6.82
2022-11-19T05:29:58.132Z,6.50
2022-11-19T05:32:24.705Z,6.50
2022-11-19T05:34:51.223Z,6.60
2022-11-19T05:37:17.752Z,6.68
2022-11-19T05:39:44.242Z,6.78
2022-11-19T05:42:10.727Z,7.07
2022-11-19T05:44:37.243Z,7.00
2022-11-19T05:47:03.774Z,6.53
2022-11-19T05:49:30.291Z,6.28
2022-11-19T05:51:56.760Z,6.57
2022-11-19T05:54:23.364Z,6.70
2022-11-19T05:56:49.904Z,6.20
2022-11-19T05:59:16.579Z,6.55
2022-11-19T06:01:43.153Z,6.85
2022-11-19T06:04:10.928Z,6.82
2022-11-19T06:06:37.968Z,7.40
2022-11-19T06:09:04.503Z,6.88
2022-11-19T06:11:50.052Z,6.57
2022-11-19T06:14:22.682Z,6.05
2022-11-19T06:16:51.326Z,6.75
2022-11-19T06:19:19.342Z,6.93
2022-11-19T06:21:46.846Z,7.25
2022-11-19T06:24:13.506Z,7.22
2022-11-19T06:26:40.823Z,7.22
2022-11-19T06:29:07.968Z,7.47
2022-11-19T06:31:34.729Z,7.50
2022-11-19T06:34:01.278Z,7.15
2022-11-19T06:36:28.482Z,7.95
2022-11-19T06:38:57.897Z,8.15
2022-11-19T06:41:24.600Z,8.00
2022-11-19T06:43:51.136Z,7.88
2022-11-19T06:46:17.664Z,7.32
2022-11-19T06:48:44.184Z,7.53
2022-11-19T06:51:10.685Z,7.35
2022-11-19T06:53:37.354Z,8.10
2022-11-19T06:56:06.445Z,7.40
2022-11-19T06:58:33.593Z,7.88
2022-11-19T07:01:00.495Z,7.45
2022-11-19T07:03:27.290Z,7.18
2022-11-19T07:05:59.456Z,8.00
2022-11-19T07:08:26.030Z,9.02
2022-11-19T07:10:52.528Z,8.55
2022-11-19T07:13:19.075Z,8.18
2022-11-19T07:15:45.573Z,7.90
2022-11-19T07:18:12.159Z,7.80
2022-11-19T07:20:38.642Z,7.50
2022-11-19T07:23:09.575Z,7.55
2022-11-19T07:25:36.163Z,7.00
2022-11-19T07:28:02.793Z,6.85
2022-11-19T07:30:30.252Z,6.45
2022-11-19T07:32:56.799Z,6.93
2022-11-19T07:35:23.290Z,7.18
2022-11-19T07:37:49.859Z,6.25
2022-11-19T07:40:16.751Z,6.63
2022-11-19T07:42:49.217Z,7.18
2022-11-19T07:45:17.213Z,6.80
2022-11-19T07:47:43.846Z,6.85
2022-11-19T07:50:10.897Z,6.50
2022-11-19T07:52:37.369Z,6.25
2022-11-19T07:55:04.184Z,6.30
2022-11-19T07:57:30.807Z,6.30
2022-11-19T07:59:57.398Z,6.60
2022-11-19T08:02:24.032Z,6.75
2022-11-19T08:04:50.579Z,6.13
2022-11-19T08:07:17.240Z,6.35
2022-11-19T08:09:43.845Z,6.05
2022-11-19T08:12:10.433Z,5.82
2022-11-19T08:14:36.963Z,6.00
2022-11-19T08:17:21.994Z,6.22
2022-11-19T08:19:48.490Z,5.38
2022-11-19T08:22:14.992Z,5.57
2022-11-19T08:24:41.506Z,6.05
2022-11-19T08:27:07.996Z,5.93
2022-11-19T08:29:34.512Z,6.05
2022-11-19T08:32:01.015Z,5.80
2022-11-19T08:34:27.670Z,6.05
2022-11-19T08:36:54.155Z,6.22
2022-11-19T08:39:20.689Z,6.60
2022-11-19T08:42:05.650Z,6.30
2022-11-19T08:44:32.194Z,6.05
2022-11-19T08:46:58.727Z,5.97
2022-11-19T08:49:25.295Z,6.30
2022-11-19T08:51:52.329Z,6.28
2022-11-19T08:54:19.289Z,5.60
2022-11-19T08:56:46.094Z,3.63
2022-11-19T08:59:12.639Z,6.20
2022-11-19T09:01:39.326Z,5.70
2022-11-19T09:04:06.138Z,5.40
2022-11-19T09:06:35.827Z,6.53
2022-11-19T09:09:03.845Z,5.53
2022-11-19T09:11:30.736Z,5.03
2022-11-19T09:13:58.279Z,5.93
2022-11-19T09:16:25.416Z,5.30
2022-11-19T09:18:51.948Z,5.93
2022-11-19T09:21:18.470Z,5.82
2022-11-19T09:23:45.024Z,7.03
2022-11-19T09:26:14.305Z,5.50
2022-11-19T09:28:41.465Z,4.97
2022-11-19T09:31:11.068Z,5.25
2022-11-19T09:33:39.099Z,5.50
2022-11-19T09:36:05.888Z,7.07
2022-11-19T09:38:34.950Z,5.88
2022-11-19T09:41:40.671Z,5.75
2022-11-19T09:44:26.210Z,5.93
2022-11-19T09:47:28.145Z,5.63
2022-11-19T09:49:57.742Z,5.30
2022-11-19T09:52:28.387Z,5.25
2022-11-19T09:54:57.562Z,4.93
2022-11-19T09:57:43.412Z,5.47
2022-11-19T10:00:16.272Z,4.20
2022-11-19T10:02:44.059Z,4.40
2022-11-19T10:05:15.778Z,3.88
2022-11-19T10:07:45.463Z,3.63
2022-11-19T10:10:12.879Z,3.05
2022-11-19T10:12:55.730Z,3.10
2022-11-19T10:15:51.689Z,3.15
2022-11-19T10:18:18.169Z,3.22
2022-11-19T10:20:53.418Z,3.42
2022-11-19T10:23:33.856Z,3.00
2022-11-19T10:26:06.806Z,3.20
2022-11-19T10:28:38.450Z,3.42
2022-11-19T10:31:16.444Z,3.20
2022-11-19T10:33:51.732Z,3.17
2022-11-19T10:36:39.679Z,3.28
2022-11-19T10:39:18.658Z,3.67
2022-11-19T10:41:50.935Z,3.10
2022-11-19T10:45:05.188Z,3.15
2022-11-19T10:47:44.353Z,3.00
2022-11-19T10:50:21.791Z,2.90
2022-11-19T10:53:14.411Z,3.10
2022-11-19T10:55:54.478Z,3.00
2022-11-19T10:58:29.099Z,3.70
2022-11-19T11:01:00.681Z,4.00
2022-11-19T11:03:32.397Z,3.40
2022-11-19T11:06:06.253Z,3.30
2022-11-19T11:08:33.754Z,3.80
2022-11-19T11:11:01.185Z,3.88
2022-11-19T11:13:46.383Z,4.00
2022-11-19T11:16:18.827Z,4.43
2022-11-19T11:18:47.338Z,3.70
2022-11-19T11:21:29.187Z,4.90
2022-11-19T11:23:56.567Z,5.53
2022-11-19T11:26:34.079Z,5.63
2022-11-19T11:29:14.236Z,5.22
2022-11-19T11:31:47.673Z,5.47
2022-11-19T11:34:26.081Z,4.50
2022-11-19T11:36:53.790Z,4.97
2022-11-19T11:39:27.971Z,4.00
2022-11-19T11:42:16.080Z,3.97
2022-11-19T11:44:53.624Z,3.97
2022-11-19T11:47:28.259Z,3.50
2022-11-19T11:50:03.158Z,3.17
2022-11-19T11:52:34.095Z,2.72
2022-11-19T11:55:04.814Z,2.22
2022-11-19T11:57:33.768Z,2.30
2022-11-19T12:00:01.765Z,2.47
2022-11-19T12:02:34.321Z,2.90
2022-11-19T12:05:06.992Z,3.10
2022-11-19T12:07:50.371Z,3.10
2022-11-19T12:10:42.788Z,3.85
2022-11-19T12:13:34.416Z,4.40
2022-11-19T12:16:11.112Z,2.75
2022-11-19T12:18:42.688Z,3.10
2022-11-19T12:21:12.342Z,3.08
2022-11-19T12:24:18.525Z,3.00
2022-11-19T12:27:03.292Z,3.20
2022-11-19T12:29:51.655Z,3.20
2022-11-19T12:32:55.822Z,2.38
2022-11-19T12:35:45.664Z,2.90
2022-11-19T12:38:27.860Z,2.30
2022-11-19T12:40:54.328Z,2.70
2022-11-19T12:43:48.454Z,3.08
2022-11-19T12:46:21.051Z,1.92
2022-11-19T12:49:02.859Z,1.80
2022-11-19T12:51:52.113Z,2.35
2022-11-19T12:54:31.732Z,2.15
2022-11-19T12:57:35.021Z,2.33
2022-11-19T13:00:27.075Z,2.70
2022-11-19T13:03:12.599Z,2.97
2022-11-19T13:05:51.459Z,2.35
2022-11-19T13:08:27.842Z,2.30
2022-11-19T13:11:15.546Z,2.20
2022-11-19T13:13:47.116Z,2.30
2022-11-19T13:16:20.085Z,2.30
2022-11-19T13:18:51.159Z,2.13
2022-11-19T13:21:23.670Z,2.00
2022-11-19T13:23:52.474Z,3.15
2022-11-19T13:26:31.925Z,2.17
2022-11-19T13:29:23.458Z,2.58
2022-11-19T13:31:56.673Z,1.52
2022-11-19T13:34:29.327Z,1.83
2022-11-19T13:37:02.311Z,1.77
2022-11-19T13:39:45.271Z,2.10
2022-11-19T13:42:34.410Z,2.38
2022-11-19T13:45:01.054Z,2.20
2022-11-19T13:48:00.846Z,2.10
2022-11-19T13:50:34.304Z,2.47
2022-11-19T13:53:03.736Z,2.30
2022-11-19T13:55:40.253Z,2.55
2022-11-19T13:58:17.813Z,2.38
2022-11-19T14:01:15.534Z,2.60
2022-11-19T14:04:03.419Z,2.95
2022-11-19T14:06:42.060Z,2.42
2022-11-19T14:09:36.522Z,2.80
2022-11-19T14:12:42.424Z,2.50
2022-11-19T14:15:52.628Z,2.30
2022-11-19T14:18:58.421Z,2.30
2022-11-19T14:21:43.313Z,2.10
2022-11-19T14:24:48.493Z,2.40
2022-11-19T14:27:31.724Z,2.20
2022-11-19T14:30:30.254Z,2.42
2022-11-19T14:32:56.794Z,1.90
2022-11-19T14:35:31.166Z,2.10
2022-11-19T14:38:35.310Z,2.20
2022-11-19T14:41:15.567Z,2.40
2022-11-19T14:44:09.740Z,1.90
2022-11-19T14:46:41.824Z,2.03
2022-11-19T14:49:29.348Z,1.83
2022-11-19T14:51:57.345Z,2.05
2022-11-19T14:54:32.627Z,1.88
2022-11-19T14:57:03.683Z,2.05
2022-11-19T14:59:34.674Z,2.40
2022-11-19T15:02:11.281Z,2.10
2022-11-19T15:04:57.769Z,1.95
2022-11-19T15:07:34.992Z,1.98
2022-11-19T15:10:10.629Z,2.10
2022-11-19T15:12:43.016Z,2.00
2022-11-19T15:15:24.774Z,2.80
2022-11-19T15:18:01.958Z,2.90
2022-11-19T15:20:43.876Z,7.47
2022-11-19T15:23:27.245Z,5.50
2022-11-19T15:26:29.187Z,5.10
2022-11-19T15:29:14.285Z,4.00
2022-11-19T15:32:05.572Z,4.30
2022-11-19T15:34:48.730Z,2.95
2022-11-19T15:37:27.447Z,4.00
2022-11-19T15:39:56.329Z,4.97
2022-11-19T15:42:39.044Z,3.90
2022-11-19T15:45:15.630Z,3.65
2022-11-19T15:47:53.498Z,5.00
2022-11-19T15:50:22.905Z,4.50
2022-11-19T15:53:14.295Z,3.00
2022-11-19T15:55:48.018Z,2.63
2022-11-19T16:00:49.792Z,2.90
2022-11-19T16:03:17.674Z,3.73
2022-11-19T16:06:00.779Z,4.22
2022-11-19T16:08:27.601Z,4.93
2022-11-19T16:11:19.929Z,6.22
2022-11-19T16:14:09.946Z,6.63
2022-11-19T16:16:55.252Z,8.38
2022-11-19T16:19:22.429Z,4.97
2022-11-19T16:22:02.078Z,4.07
2022-11-19T16:24:48.257Z,4.18
2022-11-19T16:27:23.630Z,3.70
2022-11-19T16:29:50.960Z,3.70
2022-11-19T16:32:23.372Z,3.72
2022-11-19T16:34:49.937Z,3.60
2022-11-19T16:37:21.610Z,4.25
2022-11-19T16:39:52.995Z,3.65
2022-11-19T16:42:26.452Z,2.97
2022-11-19T16:45:04.739Z,3.00
2022-11-19T16:47:35.622Z,2.95
2022-11-19T16:50:06.706Z,3.00
2022-11-19T16:52:33.176Z,3.28
2022-11-19T16:55:03.993Z,3.40
2022-11-19T16:57:31.187Z,3.17
2022-11-19T17:00:00.735Z,4.60
2022-11-19T17:02:36.263Z,3.15
2022-11-19T17:05:13.141Z,3.70
2022-11-19T17:07:47.775Z,3.78
2022-11-19T17:10:24.508Z,3.70
2022-11-19T17:12:59.788Z,3.53
2022-11-19T17:15:41.052Z,3.13
2022-11-19T17:18:14.942Z,3.80
2022-11-19T17:20:44.535Z,3.97
2022-11-19T17:23:23.766Z,3.58
2022-11-19T17:25:55.275Z,3.83
2022-11-19T17:28:30.124Z,3.85
2022-11-19T17:30:57.138Z,3.60
2022-11-19T17:33:24.390Z,3.67
2022-11-19T17:35:51.804Z,3.60
2022-11-19T17:38:24.055Z,3.80
2022-11-19T17:40:56.497Z,5.63
2022-11-19T17:43:44.426Z,10.30
2022-11-19T17:46:11.184Z,4.18
2022-11-19T17:48:41.365Z,3.95
2022-11-19T17:51:17.056Z,3.80
2022-11-19T17:53:43.944Z,4.20
2022-11-19T17:56:23.297Z,3.92
2022-11-19T17:58:49.833Z,4.10
2022-11-19T18:01:16.442Z,3.45
2022-11-19T18:03:43.336Z,4.05
2022-11-19T18:06:15.182Z,3.90
2022-11-19T18:08:42.285Z,4.00
2022-11-19T18:11:19.878Z,3.80
2022-11-19T18:13:48.613Z,3.35
2022-11-19T18:16:17.673Z,3.03
2022-11-19T18:18:44.332Z,3.28
2022-11-19T18:21:13.602Z,3.00
2022-11-19T18:23:41.266Z,3.10
2022-11-19T18:26:11.769Z,3.05
2022-11-19T18:28:39.077Z,2.90
2022-11-19T18:31:06.968Z,3.20
2022-11-19T18:33:35.392Z,3.00
2022-11-19T18:36:01.886Z,3.10
2022-11-19T18:38:30.703Z,3.53
2022-11-19T18:40:57.360Z,3.10
2022-11-19T18:43:42.622Z,2.92
2022-11-19T18:46:09.792Z,3.42
2022-11-19T18:48:36.474Z,3.30
2022-11-19T18:51:03.135Z,3.10
2022-11-19T18:53:29.724Z,3.10
2022-11-19T18:55:56.263Z,3.35
2022-11-19T18:58:22.782Z,3.30
2022-11-19T19:00:51.767Z,3.65
2022-11-19T19:03:18.288Z,3.60
2022-11-19T19:05:44.856Z,3.70
2022-11-19T19:08:11.374Z,3.50
2022-11-19T19:10:37.905Z,3.45
2022-11-19T19:13:04.491Z,3.42
2022-11-19T19:15:31.020Z,3.45
2022-11-19T19:17:57.565Z,3.10
2022-11-19T19:20:24.156Z,3.13
2022-11-19T19:22:50.651Z,3.10
2022-11-19T19:25:17.369Z,3.70
2022-11-19T19:27:43.865Z,3.25
2022-11-19T19:30:10.700Z,3.35
2022-11-19T19:32:37.385Z,3.70
2022-11-19T19:35:04.192Z,3.42
2022-11-19T19:37:30.731Z,3.30
2022-11-19T19:39:57.215Z,3.20
2022-11-19T19:42:23.789Z,3.40
2022-11-19T19:44:50.275Z,3.50
2022-11-19T19:47:17.019Z,3.70
2022-11-19T19:49:43.670Z,3.45
2022-11-19T19:52:10.258Z,3.40
2022-11-19T19:54:36.740Z,3.30
2022-11-19T19:57:03.499Z,3.30
2022-11-19T19:59:30.005Z,3.15
2022-11-19T20:01:56.656Z,3.03
2022-11-19T20:04:23.252Z,3.20
2022-11-19T20:06:51.677Z,3.63
2022-11-19T20:09:18.334Z,4.50
2022-11-19T20:11:44.880Z,4.32
2022-11-19T20:14:11.537Z,4.82
2022-11-19T20:16:40.275Z,9.05
2022-11-19T20:19:08.781Z,6.57
2022-11-19T20:21:36.460Z,6.10
2022-11-19T20:24:08.723Z,12.82
2022-11-19T20:26:39.074Z,5.97
2022-11-19T20:29:06.623Z,8.98
2022-11-19T20:31:34.009Z,12.52
2022-11-19T20:34:02.898Z,7.40
2022-11-19T20:36:32.067Z,5.70
2022-11-19T20:38:59.001Z,5.25
2022-11-19T20:41:45.907Z,6.05
2022-11-19T20:44:25.899Z,5.07
2022-11-19T20:46:55.351Z,4.15
2022-11-19T20:49:24.874Z,4.15
2022-11-19T20:51:52.671Z,3.90
2022-11-19T20:54:20.195Z,4.00
2022-11-19T20:56:47.679Z,3.75
2022-11-19T20:59:14.316Z,4.30
2022-11-19T21:01:41.473Z,3.60
2022-11-19T21:04:08.692Z,4.95
2022-11-19T21:06:35.227Z,4.85
2022-11-19T21:09:02.037Z,5.65
2022-11-19T21:11:28.507Z,6.97
2022-11-19T21:13:55.043Z,6.38
2022-11-19T21:16:23.690Z,5.05
2022-11-19T21:18:50.774Z,4.30
2022-11-19T21:21:19.361Z,3.65
2022-11-19T21:23:46.272Z,4.18
2022-11-19T21:26:19.882Z,4.00
2022-11-19T21:28:49.167Z,4.15
2022-11-19T21:31:17.078Z,3.92
2022-11-19T21:33:43.799Z,3.80
2022-11-19T21:36:10.555Z,4.75
2022-11-19T21:38:37.081Z,4.40
2022-11-19T21:41:04.136Z,5.63
2022-11-19T21:43:30.688Z,6.10
2022-11-19T21:45:57.560Z,5.40
2022-11-19T21:48:25.260Z,5.20
2022-11-19T21:50:52.892Z,5.10
2022-11-19T21:53:19.953Z,6.30
2022-11-19T21:55:47.573Z,5.70
2022-11-19T21:58:15.279Z,4.93
2022-11-19T22:00:42.628Z,6.70
2022-11-19T22:03:09.306Z,7.35
2022-11-19T22:05:35.867Z,7.22
2022-11-19T22:08:02.536Z,7.38
2022-11-19T22:10:29.906Z,5.97
2022-11-19T22:12:58.269Z,6.20
2022-11-19T22:15:25.967Z,5.55
2022-11-19T22:17:52.577Z,5.95
2022-11-19T22:20:19.250Z,6.20
2022-11-19T22:22:46.527Z,6.10
2022-11-19T22:25:13.337Z,6.45
2022-11-19T22:27:41.604Z,7.32
2022-11-19T22:30:10.099Z,7.30
2022-11-19T22:32:37.016Z,7.95
2022-11-19T22:35:04.765Z,7.50
2022-11-19T22:37:31.386Z,8.07
2022-11-19T22:39:57.905Z,7.22
2022-11-19T22:42:24.708Z,7.45
2022-11-19T22:44:51.797Z,7.57
2022-11-19T22:47:18.395Z,8.73
2022-11-19T22:49:44.954Z,8.40
2022-11-19T22:52:11.515Z,7.97
2022-11-19T22:54:41.603Z,7.75
2022-11-19T22:57:08.955Z,8.07
2022-11-19T22:59:35.847Z,8.07
2022-11-19T23:02:02.408Z,8.38
2022-11-19T23:04:29.300Z,7.90
2022-11-19T23:06:56.138Z,8.95
2022-11-19T23:09:23.244Z,9.07
2022-11-19T23:12:08.434Z,8.05
2022-11-19T23:14:35.184Z,7.35
2022-11-19T23:17:01.682Z,8.25
2022-11-19T23:19:28.198Z,7.32
2022-11-19T23:21:54.754Z,6.88
2022-11-19T23:24:21.313Z,7.97
2022-11-19T23:26:47.841Z,7.60
2022-11-19T23:29:14.399Z,7.47
2022-11-19T23:31:41.019Z,7.47
2022-11-19T23:34:07.675Z,7.10
2022-11-19T23:36:37.321Z,7.25
2022-11-19T23:39:05.366Z,6.72
2022-11-19T23:41:33.897Z,5.97
2022-11-19T23:44:01.146Z,6.75
2022-11-19T23:46:30.657Z,6.63
2022-11-19T23:48:58.025Z,6.30
2022-11-19T23:51:42.392Z,6.13
2022-11-19T23:54:12.466Z,6.32
2022-11-19T23:56:39.068Z,5.95
2022-11-19T23:59:06.194Z,6.35
